createdAt,value
2017-08-13T00:01:07.563Z,3.50
2017-08-13T00:03:36.596Z,3.10
2017-08-13T00:06:05.150Z,3.10
2017-08-13T00:08:33.843Z,3.37
2017-08-13T00:11:02.313Z,2.87
2017-08-13T00:13:31.191Z,3.00
2017-08-13T00:15:59.910Z,2.87
2017-08-13T00:18:28.625Z,2.80
2017-08-13T00:20:57.314Z,2.90
2017-08-13T00:23:26.175Z,3.20
2017-08-13T00:25:55.048Z,3.63
2017-08-13T00:28:23.816Z,3.00
2017-08-13T00:30:52.510Z,3.30
2017-08-13T00:33:22.053Z,2.67
2017-08-13T00:35:53.027Z,3.00
2017-08-13T00:38:22.715Z,3.33
2017-08-13T00:40:51.411Z,3.20
2017-08-13T00:43:20.220Z,2.50
2017-08-13T00:45:48.899Z,2.90
2017-08-13T00:48:18.519Z,2.90
2017-08-13T00:50:47.466Z,2.70
2017-08-13T00:53:16.168Z,3.30
2017-08-13T00:55:44.874Z,3.20
2017-08-13T00:58:13.984Z,3.13
2017-08-13T01:00:42.387Z,2.70
2017-08-13T01:03:11.282Z,2.57
2017-08-13T01:05:39.970Z,2.77
2017-08-13T01:08:08.739Z,2.40
2017-08-13T01:10:37.440Z,3.07
2017-08-13T01:13:06.833Z,2.90
2017-08-13T01:15:36.007Z,3.50
2017-08-13T01:18:04.470Z,3.10
2017-08-13T01:20:33.178Z,2.63
2017-08-13T01:23:05.533Z,2.57
2017-08-13T01:25:34.321Z,3.17
2017-08-13T01:28:03.075Z,2.80
2017-08-13T01:30:31.847Z,3.60
2017-08-13T01:33:04.749Z,2.77
2017-08-13T01:35:33.459Z,2.80
2017-08-13T01:38:02.129Z,2.90
2017-08-13T01:40:30.815Z,3.27
2017-08-13T01:43:04.160Z,3.03
2017-08-13T01:45:33.327Z,2.73
2017-08-13T01:48:02.113Z,3.47
2017-08-13T01:50:30.850Z,3.07
2017-08-13T01:53:02.223Z,3.03
2017-08-13T01:55:31.126Z,4.03
2017-08-13T01:57:59.901Z,3.10
2017-08-13T02:00:29.739Z,2.73
2017-08-13T02:02:58.794Z,3.60
2017-08-13T02:05:27.435Z,3.50
2017-08-13T02:07:56.231Z,4.07
2017-08-13T02:10:25.005Z,4.00
2017-08-13T02:12:54.366Z,3.63
2017-08-13T02:15:23.119Z,2.90
2017-08-13T02:17:52.248Z,3.53
2017-08-13T02:20:25.887Z,4.03
2017-08-13T02:22:56.021Z,3.30
2017-08-13T02:25:25.655Z,2.70
2017-08-13T02:27:54.621Z,4.30
2017-08-13T02:30:23.848Z,3.27
2017-08-13T02:32:52.839Z,3.90
2017-08-13T02:35:21.513Z,4.13
2017-08-13T02:37:50.364Z,3.67
2017-08-13T02:40:19.118Z,4.00
2017-08-13T02:42:47.899Z,3.40
2017-08-13T02:45:16.617Z,3.70
2017-08-13T02:47:45.848Z,3.47
2017-08-13T02:50:14.550Z,3.90
2017-08-13T02:52:43.313Z,4.40
2017-08-13T02:55:12.138Z,3.90
2017-08-13T02:57:41.979Z,4.27
2017-08-13T03:00:10.587Z,4.03
2017-08-13T03:02:39.506Z,3.63
2017-08-13T03:05:08.350Z,3.97
2017-08-13T03:07:41.138Z,4.27
2017-08-13T03:10:12.912Z,3.50
2017-08-13T03:12:41.723Z,4.27
2017-08-13T03:15:10.892Z,3.80
2017-08-13T03:17:39.913Z,4.33
2017-08-13T03:20:08.914Z,4.20
2017-08-13T03:22:38.531Z,3.70
2017-08-13T03:25:07.430Z,3.87
2017-08-13T03:27:36.036Z,4.57
2017-08-13T03:30:04.874Z,4.20
2017-08-13T03:32:33.599Z,3.83
2017-08-13T03:35:02.351Z,5.00
2017-08-13T03:37:31.373Z,4.20
2017-08-13T03:40:00.429Z,5.27
2017-08-13T03:42:29.181Z,5.30
2017-08-13T03:44:58.205Z,4.30
2017-08-13T03:47:26.924Z,4.17
2017-08-13T03:49:55.845Z,4.77
2017-08-13T03:52:24.857Z,4.50
2017-08-13T03:54:53.832Z,4.30
2017-08-13T03:57:22.531Z,4.63
2017-08-13T03:59:51.395Z,4.67
2017-08-13T04:02:20.784Z,5.03
2017-08-13T04:04:50.065Z,4.60
2017-08-13T04:07:19.143Z,4.30
2017-08-13T04:09:48.070Z,4.80
2017-08-13T04:12:17.172Z,4.33
2017-08-13T04:14:46.045Z,4.33
2017-08-13T04:17:16.242Z,4.23
2017-08-13T04:19:45.032Z,4.80
2017-08-13T04:22:13.904Z,4.17
2017-08-13T04:24:42.866Z,5.00
2017-08-13T04:27:11.750Z,4.30
2017-08-13T04:29:40.913Z,3.80
2017-08-13T04:32:09.694Z,5.00
2017-08-13T04:34:38.444Z,4.90
2017-08-13T04:37:06.888Z,5.50
2017-08-13T04:39:35.649Z,4.20
2017-08-13T04:42:04.437Z,4.80
2017-08-13T04:44:33.210Z,4.63
2017-08-13T04:47:01.650Z,4.03
2017-08-13T04:49:30.659Z,4.43
2017-08-13T04:51:59.210Z,4.20
2017-08-13T04:54:28.748Z,4.57
2017-08-13T04:56:57.509Z,4.20
2017-08-13T04:59:28.216Z,4.57
2017-08-13T05:01:56.924Z,3.57
2017-08-13T05:04:25.701Z,3.90
2017-08-13T05:06:54.574Z,4.97
2017-08-13T05:09:23.340Z,4.60
2017-08-13T05:11:52.607Z,4.53
2017-08-13T05:14:21.504Z,3.67
2017-08-13T05:16:50.513Z,3.90
2017-08-13T05:19:19.164Z,4.50
2017-08-13T05:21:47.991Z,3.43
2017-08-13T05:24:18.039Z,3.90
2017-08-13T05:26:46.826Z,4.70
2017-08-13T05:29:15.925Z,3.97
2017-08-13T05:31:44.743Z,4.47
2017-08-13T05:34:14.630Z,4.33
2017-08-13T05:36:43.333Z,4.60
2017-08-13T05:39:12.065Z,4.50
2017-08-13T05:41:41.797Z,4.73
2017-08-13T05:44:11.358Z,4.20
2017-08-13T05:46:40.976Z,4.20
2017-08-13T05:49:09.807Z,4.17
2017-08-13T05:51:38.583Z,4.63
2017-08-13T05:54:07.475Z,4.57
2017-08-13T05:56:36.430Z,4.20
2017-08-13T05:59:05.318Z,4.67
2017-08-13T06:01:34.017Z,4.20
2017-08-13T06:04:02.801Z,4.07
2017-08-13T06:06:32.304Z,3.90
2017-08-13T06:09:01.169Z,3.70
2017-08-13T06:11:30.174Z,4.57
2017-08-13T06:13:59.455Z,4.13
2017-08-13T06:16:28.461Z,3.70
2017-08-13T06:18:57.240Z,3.67
2017-08-13T06:21:25.983Z,4.13
2017-08-13T06:23:54.925Z,3.70
2017-08-13T06:26:24.013Z,4.77
2017-08-13T06:28:53.659Z,3.97
2017-08-13T06:31:22.372Z,4.30
2017-08-13T06:33:51.196Z,3.63
2017-08-13T06:36:19.960Z,4.07
2017-08-13T06:38:48.999Z,3.40
2017-08-13T06:41:18.784Z,4.07
2017-08-13T06:43:47.622Z,3.03
2017-08-13T06:46:16.566Z,4.00
2017-08-13T06:48:45.545Z,3.63
2017-08-13T06:51:14.307Z,3.50
2017-08-13T06:53:43.087Z,3.50
2017-08-13T06:56:12.612Z,4.47
2017-08-13T06:58:41.323Z,4.30
2017-08-13T07:01:10.055Z,3.57
2017-08-13T07:03:38.996Z,3.30
2017-08-13T07:06:07.995Z,3.70
2017-08-13T07:08:36.693Z,3.20
2017-08-13T07:11:05.447Z,3.10
2017-08-13T07:13:34.974Z,3.50
2017-08-13T07:16:03.719Z,3.03
2017-08-13T07:18:32.363Z,2.77
2017-08-13T07:21:01.538Z,2.70
2017-08-13T07:23:30.231Z,2.97
2017-08-13T07:25:59.026Z,3.20
2017-08-13T07:28:28.655Z,3.30
2017-08-13T07:30:57.378Z,3.57
2017-08-13T07:33:26.181Z,3.30
2017-08-13T07:35:54.892Z,2.80
2017-08-13T07:38:23.984Z,3.07
2017-08-13T07:40:52.722Z,2.73
2017-08-13T07:43:22.008Z,3.50
2017-08-13T07:45:50.799Z,3.10
2017-08-13T07:48:19.646Z,2.87
2017-08-13T07:50:48.545Z,3.07
2017-08-13T07:53:17.297Z,2.90
2017-08-13T07:55:46.143Z,2.70
2017-08-13T07:58:15.037Z,2.60
2017-08-13T08:00:43.735Z,3.30
2017-08-13T08:03:12.557Z,3.30
2017-08-13T08:05:41.338Z,3.13
2017-08-13T08:08:10.443Z,2.60
2017-08-13T08:10:39.997Z,2.60
2017-08-13T08:13:09.171Z,2.77
2017-08-13T08:15:37.971Z,2.57
2017-08-13T08:18:06.790Z,3.13
2017-08-13T08:20:35.298Z,2.93
2017-08-13T08:23:05.591Z,2.17
2017-08-13T08:25:34.270Z,2.13
2017-08-13T08:28:02.915Z,2.43
2017-08-13T08:30:31.710Z,2.50
2017-08-13T08:33:04.558Z,2.67
2017-08-13T08:35:33.260Z,2.43
2017-08-13T08:38:01.925Z,2.33
2017-08-13T08:40:30.711Z,2.80
2017-08-13T08:43:03.928Z,2.60
2017-08-13T08:45:32.415Z,2.80
2017-08-13T08:48:01.954Z,2.30
2017-08-13T08:50:30.860Z,2.00
2017-08-13T08:53:02.069Z,2.43
2017-08-13T08:55:32.167Z,3.20
2017-08-13T08:58:01.356Z,3.20
2017-08-13T09:00:30.492Z,3.40
2017-08-13T09:03:03.761Z,2.90
2017-08-13T09:05:32.619Z,2.90
2017-08-13T09:08:01.632Z,3.03
2017-08-13T09:10:30.729Z,2.83
2017-08-13T09:13:04.176Z,2.40
2017-08-13T09:15:33.272Z,2.10
2017-08-13T09:18:02.294Z,2.37
2017-08-13T09:20:31.379Z,2.30
2017-08-13T09:23:04.095Z,2.73
2017-08-13T09:25:32.993Z,1.87
2017-08-13T09:28:01.865Z,2.33
2017-08-13T09:30:31.529Z,2.40
2017-08-13T09:33:02.767Z,2.23
2017-08-13T09:35:31.372Z,1.97
2017-08-13T09:38:00.361Z,1.87
2017-08-13T09:40:29.448Z,2.10
2017-08-13T09:42:59.404Z,2.33
2017-08-13T09:45:28.501Z,2.60
2017-08-13T09:47:57.549Z,2.13
2017-08-13T09:50:26.665Z,2.30
2017-08-13T09:52:55.736Z,2.97
2017-08-13T09:55:24.716Z,2.03
2017-08-13T09:57:53.671Z,2.40
2017-08-13T10:00:22.464Z,2.20
2017-08-13T10:02:50.970Z,2.57
2017-08-13T10:05:19.805Z,2.43
2017-08-13T10:07:48.925Z,2.90
2017-08-13T10:10:17.804Z,1.80
2017-08-13T10:12:46.391Z,2.60
2017-08-13T10:15:15.874Z,2.90
2017-08-13T10:17:45.589Z,2.60
2017-08-13T10:20:14.321Z,2.60
2017-08-13T10:22:43.290Z,2.13
2017-08-13T10:25:13.264Z,2.37
2017-08-13T10:27:43.051Z,2.83
2017-08-13T10:30:12.688Z,2.30
2017-08-13T10:32:41.443Z,2.10
2017-08-13T10:35:10.335Z,2.43
2017-08-13T10:37:39.050Z,1.93
2017-08-13T10:40:07.838Z,2.53
2017-08-13T10:42:36.678Z,2.20
2017-08-13T10:45:06.533Z,2.20
2017-08-13T10:47:35.476Z,2.40
2017-08-13T10:50:04.337Z,2.83
2017-08-13T10:52:33.013Z,2.00
2017-08-13T10:55:01.777Z,2.50
2017-08-13T10:57:31.009Z,2.50
2017-08-13T10:59:59.496Z,2.27
2017-08-13T11:02:28.502Z,2.70
2017-08-13T11:04:57.234Z,2.63
2017-08-13T11:07:25.806Z,2.80
2017-08-13T11:09:54.681Z,2.50
2017-08-13T11:12:23.572Z,2.07
2017-08-13T11:14:52.644Z,2.67
2017-08-13T11:17:21.384Z,2.90
2017-08-13T11:19:50.136Z,1.90
2017-08-13T11:22:18.941Z,2.23
2017-08-13T11:24:48.518Z,2.40
2017-08-13T11:27:17.483Z,2.20
2017-08-13T11:29:46.618Z,2.00
2017-08-13T11:32:15.402Z,2.10
2017-08-13T11:34:44.126Z,2.57
2017-08-13T11:37:12.932Z,2.10
2017-08-13T11:39:41.651Z,2.40
2017-08-13T11:42:10.347Z,1.50
2017-08-13T11:44:39.042Z,2.90
2017-08-13T11:47:07.740Z,2.37
2017-08-13T11:49:36.261Z,1.73
2017-08-13T11:52:04.945Z,1.90
2017-08-13T11:54:34.528Z,1.60
2017-08-13T11:57:03.218Z,1.90
2017-08-13T11:59:31.897Z,2.07
2017-08-13T12:02:00.557Z,2.37
2017-08-13T12:04:29.558Z,2.10
2017-08-13T12:06:58.235Z,2.23
2017-08-13T12:09:26.957Z,2.07
2017-08-13T12:11:55.662Z,2.30
2017-08-13T12:14:24.386Z,1.80
2017-08-13T12:16:53.085Z,2.03
2017-08-13T12:19:21.694Z,2.10
2017-08-13T12:21:50.423Z,1.57
2017-08-13T12:24:19.955Z,2.30
2017-08-13T12:26:48.654Z,2.00
2017-08-13T12:29:17.305Z,2.33
2017-08-13T12:31:46.062Z,1.70
2017-08-13T12:34:14.751Z,2.33
2017-08-13T12:36:43.503Z,1.70
2017-08-13T12:39:12.177Z,1.97
2017-08-13T12:41:40.952Z,2.00
2017-08-13T12:44:09.696Z,2.40
2017-08-13T12:46:38.428Z,2.60
2017-08-13T12:49:07.139Z,1.93
2017-08-13T12:51:35.901Z,1.60
2017-08-13T12:54:04.618Z,1.90
2017-08-13T12:56:33.273Z,1.67
2017-08-13T12:59:02.043Z,2.07
2017-08-13T13:01:30.775Z,1.83
2017-08-13T13:03:59.465Z,2.40
2017-08-13T13:06:28.157Z,2.20
2017-08-13T13:08:57.785Z,1.67
2017-08-13T13:11:26.538Z,1.50
2017-08-13T13:13:55.596Z,2.00
2017-08-13T13:16:24.290Z,1.77
2017-08-13T13:18:53.072Z,1.50
2017-08-13T13:21:22.620Z,2.13
2017-08-13T13:23:51.400Z,1.83
2017-08-13T13:26:20.136Z,1.83
2017-08-13T13:28:48.930Z,1.77
2017-08-13T13:31:17.581Z,1.70
2017-08-13T13:33:46.293Z,2.00
2017-08-13T13:36:14.987Z,1.77
2017-08-13T13:38:43.728Z,1.87
2017-08-13T13:41:12.477Z,2.07
2017-08-13T13:43:41.239Z,1.77
2017-08-13T13:46:09.899Z,1.63
2017-08-13T13:48:39.417Z,2.17
2017-08-13T13:51:08.126Z,1.73
2017-08-13T13:53:36.844Z,1.50
2017-08-13T13:56:05.633Z,2.23
2017-08-13T13:58:34.010Z,2.00
2017-08-13T14:01:02.695Z,1.47
2017-08-13T14:03:32.357Z,1.97
2017-08-13T14:06:01.020Z,2.03
2017-08-13T14:08:29.960Z,2.23
2017-08-13T14:10:58.712Z,1.53
2017-08-13T14:13:27.108Z,2.10
2017-08-13T14:15:56.758Z,1.40
2017-08-13T14:18:25.537Z,1.97
2017-08-13T14:20:54.190Z,1.50
2017-08-13T14:23:22.898Z,1.77
2017-08-13T14:25:51.594Z,2.07
2017-08-13T14:28:20.300Z,2.87
2017-08-13T14:30:49.020Z,1.93
2017-08-13T14:33:17.755Z,2.40
2017-08-13T14:35:47.420Z,2.20
2017-08-13T14:38:16.324Z,1.60
2017-08-13T14:40:45.684Z,1.90
2017-08-13T14:43:14.470Z,2.20
2017-08-13T14:45:42.680Z,2.20
2017-08-13T14:48:11.248Z,2.07
2017-08-13T14:50:39.899Z,2.30
2017-08-13T14:53:08.648Z,1.63
2017-08-13T14:55:37.330Z,1.90
2017-08-13T14:58:05.957Z,1.40
2017-08-13T15:00:34.778Z,1.47
2017-08-13T15:03:04.516Z,2.03
2017-08-13T15:05:33.240Z,1.50
2017-08-13T15:08:01.950Z,1.57
2017-08-13T15:10:30.700Z,2.20
2017-08-13T15:13:02.777Z,1.83
2017-08-13T15:15:31.508Z,1.60
2017-08-13T15:18:00.210Z,2.00
2017-08-13T15:20:28.912Z,1.57
2017-08-13T15:22:57.568Z,1.80
2017-08-13T15:25:26.288Z,1.63
2017-08-13T15:27:55.831Z,1.93
2017-08-13T15:30:24.521Z,2.60
2017-08-13T15:32:53.222Z,2.60
2017-08-13T15:35:21.941Z,2.10
2017-08-13T15:37:50.679Z,2.00
2017-08-13T15:40:19.382Z,1.63
2017-08-13T15:42:48.067Z,2.07
2017-08-13T15:45:16.794Z,2.07
2017-08-13T15:47:45.483Z,1.97
2017-08-13T15:50:14.217Z,1.50
2017-08-13T15:52:43.671Z,2.13
2017-08-13T15:55:12.352Z,1.33
2017-08-13T15:57:41.098Z,1.87
2017-08-13T16:00:09.809Z,1.70
2017-08-13T16:02:39.343Z,1.67
2017-08-13T16:05:08.100Z,1.53
2017-08-13T16:07:36.789Z,2.23
2017-08-13T16:10:05.466Z,1.80
2017-08-13T16:12:34.163Z,1.60
2017-08-13T16:15:03.585Z,1.63
2017-08-13T16:17:32.222Z,2.63
2017-08-13T16:20:01.189Z,2.40
2017-08-13T16:22:29.830Z,1.97
2017-08-13T16:24:58.535Z,1.70
2017-08-13T16:27:27.227Z,1.80
2017-08-13T16:29:56.907Z,1.70
2017-08-13T16:32:25.678Z,1.93
2017-08-13T16:34:54.387Z,1.73
2017-08-13T16:37:23.174Z,1.70
2017-08-13T16:39:52.806Z,1.50
2017-08-13T16:42:21.535Z,1.43
2017-08-13T16:44:50.283Z,1.80
2017-08-13T16:47:18.988Z,1.17
2017-08-13T16:49:47.726Z,1.57
2017-08-13T16:52:16.381Z,1.80
2017-08-13T16:54:45.059Z,1.37
2017-08-13T16:57:13.841Z,1.80
2017-08-13T16:59:42.580Z,1.60
2017-08-13T17:02:11.249Z,1.43
2017-08-13T17:04:50.101Z,1.50
2017-08-13T17:07:18.896Z,1.53
2017-08-13T17:09:47.672Z,1.90
2017-08-13T17:12:16.425Z,1.47
2017-08-13T17:14:45.125Z,1.40
2017-08-13T17:17:15.972Z,1.50
2017-08-13T17:19:45.876Z,1.33
2017-08-13T17:22:14.580Z,1.20
2017-08-13T17:24:43.289Z,1.40
2017-08-13T17:27:12.049Z,1.27
2017-08-13T17:29:43.816Z,1.20
2017-08-13T17:32:12.587Z,1.23
2017-08-13T17:34:53.285Z,1.70
2017-08-13T17:37:36.102Z,1.43
2017-08-13T17:40:17.786Z,1.50
2017-08-13T17:42:58.013Z,1.60
2017-08-13T17:45:39.331Z,1.47
2017-08-13T17:48:24.099Z,1.70
2017-08-13T17:51:06.195Z,1.47
2017-08-13T17:53:44.381Z,2.67
2017-08-13T17:56:24.369Z,2.37
2017-08-13T17:59:09.876Z,2.10
2017-08-13T18:01:49.652Z,1.77
2017-08-13T18:04:31.671Z,1.37
2017-08-13T18:07:15.089Z,1.43
2017-08-13T18:09:56.228Z,1.37
2017-08-13T18:12:40.547Z,2.13
2017-08-13T18:15:22.952Z,1.37
2017-08-13T18:18:02.004Z,1.70
2017-08-13T18:20:41.732Z,1.23
2017-08-13T18:23:20.027Z,1.50
2017-08-13T18:26:03.049Z,1.33
2017-08-13T18:28:45.213Z,1.67
2017-08-13T18:31:14.547Z,1.37
2017-08-13T18:33:43.202Z,1.47
2017-08-13T18:36:11.892Z,1.83
2017-08-13T18:38:56.291Z,1.30
2017-08-13T18:41:34.924Z,0.97
2017-08-13T18:44:14.395Z,1.67
2017-08-13T18:46:54.810Z,1.10
2017-08-13T18:49:34.496Z,1.33
2017-08-13T18:52:14.572Z,1.13
2017-08-13T18:54:52.112Z,1.40
2017-08-13T18:57:31.720Z,1.40
2017-08-13T19:00:12.726Z,1.67
2017-08-13T19:02:54.721Z,1.40
2017-08-13T19:05:33.372Z,2.13
2017-08-13T19:08:15.258Z,1.20
2017-08-13T19:10:56.794Z,1.80
2017-08-13T19:13:26.305Z,1.33
2017-08-13T19:16:08.527Z,1.90
2017-08-13T19:18:52.865Z,1.30
2017-08-13T19:21:37.249Z,1.10
2017-08-13T19:24:20.719Z,1.20
2017-08-13T19:26:59.982Z,1.40
2017-08-13T19:29:40.535Z,2.53
2017-08-13T19:32:20.129Z,1.63
2017-08-13T19:35:04.542Z,1.90
2017-08-13T19:37:34.155Z,3.50
2017-08-13T19:40:02.813Z,2.50
2017-08-13T19:42:31.582Z,2.80
2017-08-13T19:45:00.527Z,3.53
2017-08-13T19:47:29.280Z,2.87
2017-08-13T19:49:58.762Z,3.90
2017-08-13T19:52:27.508Z,3.07
2017-08-13T19:54:57.393Z,2.87
2017-08-13T19:57:27.361Z,2.50
2017-08-13T19:59:57.143Z,2.20
2017-08-13T20:02:26.353Z,2.30
2017-08-13T20:04:55.079Z,2.40
2017-08-13T20:07:23.781Z,2.20
2017-08-13T20:09:52.601Z,2.37
2017-08-13T20:12:21.493Z,2.40
2017-08-13T20:14:55.679Z,2.30
2017-08-13T20:17:35.987Z,2.37
2017-08-13T20:20:12.912Z,2.40
2017-08-13T20:22:51.082Z,2.13
2017-08-13T20:25:30.316Z,1.70
2017-08-13T20:28:10.295Z,2.47
2017-08-13T20:30:49.034Z,2.23
2017-08-13T20:33:28.125Z,1.83
2017-08-13T20:36:11.008Z,2.30
2017-08-13T20:38:54.571Z,1.80
2017-08-13T20:41:36.467Z,1.60
2017-08-13T20:44:17.781Z,1.60
2017-08-13T20:47:04.074Z,1.57
2017-08-13T20:49:48.041Z,1.87
2017-08-13T20:52:35.052Z,1.63
2017-08-13T20:55:19.417Z,2.23
2017-08-13T20:58:05.247Z,1.90
2017-08-13T21:00:50.892Z,2.10
2017-08-13T21:03:37.120Z,1.97
2017-08-13T21:06:23.635Z,2.00
2017-08-13T21:09:10.809Z,2.03
2017-08-13T21:11:54.177Z,3.13
2017-08-13T21:14:37.870Z,2.23
2017-08-13T21:17:20.610Z,2.50
2017-08-13T21:20:05.090Z,2.60
2017-08-13T21:22:48.212Z,2.83
2017-08-13T21:25:32.093Z,2.87
2017-08-13T21:28:02.508Z,3.00
2017-08-13T21:30:32.163Z,2.77
2017-08-13T21:33:05.905Z,2.83
2017-08-13T21:35:36.207Z,2.30
2017-08-13T21:38:07.484Z,2.87
2017-08-13T21:40:40.483Z,2.70
2017-08-13T21:43:12.344Z,1.90
2017-08-13T21:45:41.252Z,2.70
2017-08-13T21:48:10.893Z,2.30
2017-08-13T21:50:40.362Z,2.30
2017-08-13T21:53:09.608Z,2.40
2017-08-13T21:55:38.546Z,3.17
2017-08-13T21:58:07.412Z,2.40
2017-08-13T22:00:36.547Z,2.33
2017-08-13T22:03:07.113Z,2.07
2017-08-13T22:05:38.429Z,2.90
2017-08-13T22:08:08.208Z,2.67
2017-08-13T22:10:38.932Z,2.47
2017-08-13T22:13:08.731Z,2.50
2017-08-13T22:15:41.140Z,1.90
2017-08-13T22:18:10.729Z,1.80
2017-08-13T22:20:40.197Z,1.80
2017-08-13T22:23:13.534Z,2.33
2017-08-13T22:25:45.906Z,2.07
2017-08-13T22:28:17.220Z,1.90
2017-08-13T22:30:47.951Z,2.13
2017-08-13T22:33:19.746Z,1.97
2017-08-13T22:35:48.458Z,2.00
2017-08-13T22:38:17.939Z,2.30
2017-08-13T22:40:46.850Z,1.77
2017-08-13T22:43:15.516Z,1.87
2017-08-13T22:45:44.232Z,1.60
2017-08-13T22:48:12.899Z,1.87
2017-08-13T22:50:42.769Z,1.63
2017-08-13T22:53:13.294Z,1.60
2017-08-13T22:55:43.234Z,2.00
2017-08-13T22:58:13.245Z,1.67
2017-08-13T23:00:44.476Z,1.97
2017-08-13T23:03:15.655Z,1.67
2017-08-13T23:05:44.838Z,1.60
2017-08-13T23:08:15.168Z,2.07
2017-08-13T23:10:45.288Z,1.60
2017-08-13T23:13:15.040Z,2.00
2017-08-13T23:15:45.280Z,2.37
2017-08-13T23:18:14.861Z,1.40
2017-08-13T23:20:45.138Z,1.80
2017-08-13T23:23:14.671Z,1.13
2017-08-13T23:25:44.655Z,1.50
2017-08-13T23:28:13.391Z,1.93
2017-08-13T23:30:42.354Z,1.50
2017-08-13T23:33:10.829Z,1.60
2017-08-13T23:35:39.697Z,1.53
2017-08-13T23:38:08.371Z,1.60
2017-08-13T23:40:37.969Z,1.57
2017-08-13T23:43:06.679Z,1.53
2017-08-13T23:45:35.448Z,1.90
2017-08-13T23:48:04.266Z,1.70
2017-08-13T23:50:32.963Z,2.80
2017-08-13T23:53:04.817Z,3.00
2017-08-13T23:55:33.484Z,2.60
2017-08-13T23:58:02.214Z,2.27
